Terminal Aerodrome Forecast
Issued by NWS Kansas City/Pleasant Hill, MO

Home | Current Version | Previous Version | Text Only | Print | Product List | Glossary On
Versions: 1 2 3 4 5 6 7 8 9 10 11 12 13 14 15 16 17 18 19 20
000
FTUS43 KEAX 012000 AAA
TAFMCI
TAF AMD
KMCI 012017Z 0120/0218 18008KT P6SM BKN045
     FM012200 10009KT P6SM VCTS SCT030CB BKN100
     FM020300 06010KT P6SM VCSH BKN030
     FM020700 04009KT P6SM BKN025=

USA.gov is the U.S. government's official web portal to all federal, state and local government web resources and services.